sensor_id;sensor_type;location;lat;lon;timestamp;P1;durP1;ratioP1;P2;durP2;ratioP2
4309;SDS011;2168;53.576;9.980;2023-08-20T00:01:57;2.50;;;2.50;;
4309;SDS011;2168;53.576;9.980;2023-08-20T00:04:24;2.40;;;2.40;;
4309;SDS011;2168;53.576;9.980;2023-08-20T00:06:50;2.23;;;2.23;;
4309;SDS011;2168;53.576;9.980;2023-08-20T00:09:15;2.20;;;2.20;;
4309;SDS011;2168;53.576;9.980;2023-08-20T00:11:41;2.60;;;2.60;;
4309;SDS011;2168;53.576;9.980;2023-08-20T00:14:06;2.50;;;2.50;;
4309;SDS011;2168;53.576;9.980;2023-08-20T00:16:32;1.97;;;1.97;;
4309;SDS011;2168;53.576;9.980;2023-08-20T00:18:57;2.00;;;2.00;;
4309;SDS011;2168;53.576;9.980;2023-08-20T00:21:22;3.00;;;3.00;;
4309;SDS011;2168;53.576;9.980;2023-08-20T00:23:48;2.00;;;2.00;;
4309;SDS011;2168;53.576;9.980;2023-08-20T00:26:13;2.10;;;2.10;;
4309;SDS011;2168;53.576;9.980;2023-08-20T00:28:38;2.57;;;2.57;;
4309;SDS011;2168;53.576;9.980;2023-08-20T00:31:04;2.53;;;2.53;;
4309;SDS011;2168;53.576;9.980;2023-08-20T00:33:29;2.60;;;2.60;;
4309;SDS011;2168;53.576;9.980;2023-08-20T00:35:54;2.70;;;2.70;;
4309;SDS011;2168;53.576;9.980;2023-08-20T00:38:19;2.37;;;2.37;;
4309;SDS011;2168;53.576;9.980;2023-08-20T00:40:45;2.60;;;2.60;;
4309;SDS011;2168;53.576;9.980;2023-08-20T00:43:10;2.80;;;2.80;;
4309;SDS011;2168;53.576;9.980;2023-08-20T00:45:35;2.80;;;2.80;;
4309;SDS011;2168;53.576;9.980;2023-08-20T00:48:01;2.80;;;2.80;;
4309;SDS011;2168;53.576;9.980;2023-08-20T00:50:26;2.60;;;2.60;;
4309;SDS011;2168;53.576;9.980;2023-08-20T00:52:52;2.20;;;2.20;;
4309;SDS011;2168;53.576;9.980;2023-08-20T00:55:17;2.40;;;2.40;;
4309;SDS011;2168;53.576;9.980;2023-08-20T00:57:42;2.30;;;2.30;;
4309;SDS011;2168;53.576;9.980;2023-08-20T01:00:08;2.17;;;2.17;;
4309;SDS011;2168;53.576;9.980;2023-08-20T01:02:36;2.30;;;2.30;;
4309;SDS011;2168;53.576;9.980;2023-08-20T01:05:02;2.73;;;2.73;;
4309;SDS011;2168;53.576;9.980;2023-08-20T01:07:30;2.60;;;2.60;;
4309;SDS011;2168;53.576;9.980;2023-08-20T01:12:24;2.53;;;2.53;;
4309;SDS011;2168;53.576;9.980;2023-08-20T01:14:50;2.80;;;2.80;;
4309;SDS011;2168;53.576;9.980;2023-08-20T01:17:15;2.17;;;2.17;;
4309;SDS011;2168;53.576;9.980;2023-08-20T01:19:41;2.60;;;2.60;;
4309;SDS011;2168;53.576;9.980;2023-08-20T01:24:55;2.40;;;2.40;;
4309;SDS011;2168;53.576;9.980;2023-08-20T01:29:55;2.83;;;2.83;;
4309;SDS011;2168;53.576;9.980;2023-08-20T01:32:22;3.10;;;3.10;;
4309;SDS011;2168;53.576;9.980;2023-08-20T01:34:47;2.70;;;2.70;;
4309;SDS011;2168;53.576;9.980;2023-08-20T01:37:13;2.80;;;2.80;;
4309;SDS011;2168;53.576;9.980;2023-08-20T01:39:38;2.80;;;2.80;;
4309;SDS011;2168;53.576;9.980;2023-08-20T01:42:04;2.67;;;2.67;;
4309;SDS011;2168;53.576;9.980;2023-08-20T01:44:29;3.90;;;3.90;;
4309;SDS011;2168;53.576;9.980;2023-08-20T01:46:54;2.90;;;2.90;;
4309;SDS011;2168;53.576;9.980;2023-08-20T01:49:19;5.77;;;5.67;;
4309;SDS011;2168;53.576;9.980;2023-08-20T01:51:44;2.40;;;2.40;;
4309;SDS011;2168;53.576;9.980;2023-08-20T01:54:09;1.80;;;1.80;;
4309;SDS011;2168;53.576;9.980;2023-08-20T01:56:35;1.90;;;1.90;;
4309;SDS011;2168;53.576;9.980;2023-08-20T01:59:00;3.43;;;3.43;;
4309;SDS011;2168;53.576;9.980;2023-08-20T02:01:25;2.90;;;2.90;;
4309;SDS011;2168;53.576;9.980;2023-08-20T02:03:51;2.03;;;2.03;;
4309;SDS011;2168;53.576;9.980;2023-08-20T02:06:17;2.20;;;2.20;;
4309;SDS011;2168;53.576;9.980;2023-08-20T02:08:42;2.30;;;2.30;;
4309;SDS011;2168;53.576;9.980;2023-08-20T02:11:07;2.30;;;2.30;;
4309;SDS011;2168;53.576;9.980;2023-08-20T02:13:32;2.10;;;2.10;;
4309;SDS011;2168;53.576;9.980;2023-08-20T02:15:58;2.40;;;2.40;;
4309;SDS011;2168;53.576;9.980;2023-08-20T02:18:23;2.10;;;2.10;;
4309;SDS011;2168;53.576;9.980;2023-08-20T02:20:48;2.23;;;2.23;;
4309;SDS011;2168;53.576;9.980;2023-08-20T02:23:14;1.67;;;1.67;;
4309;SDS011;2168;53.576;9.980;2023-08-20T02:25:39;2.30;;;2.30;;
4309;SDS011;2168;53.576;9.980;2023-08-20T02:28:04;2.10;;;2.10;;
4309;SDS011;2168;53.576;9.980;2023-08-20T02:30:29;2.27;;;2.27;;
4309;SDS011;2168;53.576;9.980;2023-08-20T02:32:54;3.53;;;3.53;;
4309;SDS011;2168;53.576;9.980;2023-08-20T02:35:20;1.83;;;1.83;;
4309;SDS011;2168;53.576;9.980;2023-08-20T02:37:45;2.07;;;2.07;;
4309;SDS011;2168;53.576;9.980;2023-08-20T02:40:10;2.27;;;2.27;;
4309;SDS011;2168;53.576;9.980;2023-08-20T02:42:36;2.20;;;2.20;;
4309;SDS011;2168;53.576;9.980;2023-08-20T02:45:01;2.30;;;2.30;;
4309;SDS011;2168;53.576;9.980;2023-08-20T02:47:26;3.17;;;3.17;;
4309;SDS011;2168;53.576;9.980;2023-08-20T02:49:52;1.90;;;1.90;;
4309;SDS011;2168;53.576;9.980;2023-08-20T02:52:17;2.00;;;2.00;;
4309;SDS011;2168;53.576;9.980;2023-08-20T02:54:42;2.07;;;2.07;;
4309;SDS011;2168;53.576;9.980;2023-08-20T02:57:07;2.03;;;2.03;;
4309;SDS011;2168;53.576;9.980;2023-08-20T02:59:32;2.10;;;2.10;;
4309;SDS011;2168;53.576;9.980;2023-08-20T03:01:59;1.77;;;1.77;;
4309;SDS011;2168;53.576;9.980;2023-08-20T03:04:24;1.87;;;1.87;;
4309;SDS011;2168;53.576;9.980;2023-08-20T03:06:49;2.23;;;2.23;;
4309;SDS011;2168;53.576;9.980;2023-08-20T03:09:14;2.17;;;2.17;;
4309;SDS011;2168;53.576;9.980;2023-08-20T03:11:39;2.50;;;2.50;;
4309;SDS011;2168;53.576;9.980;2023-08-20T03:14:04;2.30;;;2.30;;
4309;SDS011;2168;53.576;9.980;2023-08-20T03:16:30;2.07;;;2.07;;
4309;SDS011;2168;53.576;9.980;2023-08-20T03:18:55;2.27;;;2.27;;
4309;SDS011;2168;53.576;9.980;2023-08-20T03:21:20;2.20;;;2.20;;
4309;SDS011;2168;53.576;9.980;2023-08-20T03:23:45;2.40;;;2.40;;
4309;SDS011;2168;53.576;9.980;2023-08-20T03:26:10;2.33;;;2.33;;
4309;SDS011;2168;53.576;9.980;2023-08-20T03:28:35;2.30;;;2.30;;
4309;SDS011;2168;53.576;9.980;2023-08-20T03:31:01;2.70;;;2.70;;
4309;SDS011;2168;53.576;9.980;2023-08-20T03:33:27;2.30;;;2.30;;
4309;SDS011;2168;53.576;9.980;2023-08-20T03:35:52;2.20;;;2.20;;
4309;SDS011;2168;53.576;9.980;2023-08-20T03:38:17;2.40;;;2.40;;
4309;SDS011;2168;53.576;9.980;2023-08-20T03:40:42;2.50;;;2.50;;
4309;SDS011;2168;53.576;9.980;2023-08-20T03:43:07;2.60;;;2.60;;
4309;SDS011;2168;53.576;9.980;2023-08-20T03:45:32;2.40;;;2.40;;
4309;SDS011;2168;53.576;9.980;2023-08-20T03:47:58;2.27;;;2.27;;
4309;SDS011;2168;53.576;9.980;2023-08-20T03:50:23;2.30;;;2.30;;
4309;SDS011;2168;53.576;9.980;2023-08-20T03:52:48;2.07;;;2.07;;
4309;SDS011;2168;53.576;9.980;2023-08-20T03:55:13;2.13;;;2.13;;
4309;SDS011;2168;53.576;9.980;2023-08-20T03:57:38;2.37;;;2.37;;
4309;SDS011;2168;53.576;9.980;2023-08-20T04:00:04;1.97;;;1.97;;
4309;SDS011;2168;53.576;9.980;2023-08-20T04:02:29;2.50;;;2.50;;
4309;SDS011;2168;53.576;9.980;2023-08-20T04:04:56;1.97;;;1.97;;
4309;SDS011;2168;53.576;9.980;2023-08-20T04:07:22;1.97;;;1.97;;
4309;SDS011;2168;53.576;9.980;2023-08-20T04:09:47;2.17;;;2.17;;
4309;SDS011;2168;53.576;9.980;2023-08-20T04:12:12;1.97;;;1.97;;
4309;SDS011;2168;53.576;9.980;2023-08-20T04:14:37;2.07;;;2.07;;
4309;SDS011;2168;53.576;9.980;2023-08-20T04:17:02;2.23;;;2.23;;
4309;SDS011;2168;53.576;9.980;2023-08-20T04:19:28;2.30;;;2.30;;
4309;SDS011;2168;53.576;9.980;2023-08-20T04:21:53;2.13;;;2.13;;
4309;SDS011;2168;53.576;9.980;2023-08-20T04:24:18;2.20;;;2.20;;
4309;SDS011;2168;53.576;9.980;2023-08-20T04:26:43;2.40;;;2.40;;
4309;SDS011;2168;53.576;9.980;2023-08-20T04:29:09;2.30;;;2.30;;
4309;SDS011;2168;53.576;9.980;2023-08-20T04:31:34;1.93;;;1.93;;
4309;SDS011;2168;53.576;9.980;2023-08-20T04:33:59;2.17;;;2.17;;
4309;SDS011;2168;53.576;9.980;2023-08-20T04:36:24;2.40;;;2.40;;
4309;SDS011;2168;53.576;9.980;2023-08-20T04:38:49;2.40;;;2.40;;
4309;SDS011;2168;53.576;9.980;2023-08-20T04:41:14;2.73;;;2.73;;
4309;SDS011;2168;53.576;9.980;2023-08-20T04:43:40;2.00;;;2.00;;
4309;SDS011;2168;53.576;9.980;2023-08-20T04:46:05;2.10;;;2.10;;
4309;SDS011;2168;53.576;9.980;2023-08-20T04:48:30;1.77;;;1.77;;
4309;SDS011;2168;53.576;9.980;2023-08-20T04:50:55;2.03;;;2.03;;
4309;SDS011;2168;53.576;9.980;2023-08-20T04:53:21;2.03;;;2.03;;
4309;SDS011;2168;53.576;9.980;2023-08-20T04:55:46;2.43;;;2.43;;
4309;SDS011;2168;53.576;9.980;2023-08-20T04:58:11;2.30;;;2.30;;
4309;SDS011;2168;53.576;9.980;2023-08-20T05:00:36;1.73;;;1.73;;
4309;SDS011;2168;53.576;9.980;2023-08-20T05:03:01;2.30;;;2.30;;
4309;SDS011;2168;53.576;9.980;2023-08-20T05:05:26;2.30;;;2.30;;
4309;SDS011;2168;53.576;9.980;2023-08-20T05:07:52;4.33;;;4.33;;
4309;SDS011;2168;53.576;9.980;2023-08-20T05:10:17;4.27;;;4.27;;
4309;SDS011;2168;53.576;9.980;2023-08-20T05:12:42;2.60;;;2.60;;
4309;SDS011;2168;53.576;9.980;2023-08-20T05:15:07;2.30;;;2.30;;
4309;SDS011;2168;53.576;9.980;2023-08-20T05:17:33;2.70;;;2.70;;
4309;SDS011;2168;53.576;9.980;2023-08-20T05:19:58;2.10;;;2.10;;
4309;SDS011;2168;53.576;9.980;2023-08-20T05:22:24;2.40;;;2.40;;
4309;SDS011;2168;53.576;9.980;2023-08-20T05:24:49;2.40;;;2.40;;
4309;SDS011;2168;53.576;9.980;2023-08-20T05:27:15;2.37;;;2.37;;
4309;SDS011;2168;53.576;9.980;2023-08-20T05:29:41;2.80;;;2.80;;
4309;SDS011;2168;53.576;9.980;2023-08-20T05:32:06;2.40;;;2.40;;
4309;SDS011;2168;53.576;9.980;2023-08-20T05:34:31;2.40;;;2.40;;
4309;SDS011;2168;53.576;9.980;2023-08-20T05:36:57;2.30;;;2.30;;
4309;SDS011;2168;53.576;9.980;2023-08-20T05:39:22;2.20;;;2.20;;
4309;SDS011;2168;53.576;9.980;2023-08-20T05:41:48;1.90;;;1.90;;
4309;SDS011;2168;53.576;9.980;2023-08-20T05:44:13;2.37;;;2.37;;
4309;SDS011;2168;53.576;9.980;2023-08-20T05:46:38;2.10;;;2.10;;
4309;SDS011;2168;53.576;9.980;2023-08-20T05:49:05;1.80;;;1.80;;
4309;SDS011;2168;53.576;9.980;2023-08-20T05:51:30;2.10;;;2.10;;
4309;SDS011;2168;53.576;9.980;2023-08-20T05:53:55;1.93;;;1.93;;
4309;SDS011;2168;53.576;9.980;2023-08-20T05:56:21;2.30;;;2.30;;
4309;SDS011;2168;53.576;9.980;2023-08-20T05:58:46;1.90;;;1.90;;
4309;SDS011;2168;53.576;9.980;2023-08-20T06:01:11;2.20;;;2.20;;
4309;SDS011;2168;53.576;9.980;2023-08-20T06:03:36;2.23;;;2.23;;
4309;SDS011;2168;53.576;9.980;2023-08-20T06:06:01;2.27;;;2.27;;
4309;SDS011;2168;53.576;9.980;2023-08-20T06:08:27;3.47;;;3.47;;
4309;SDS011;2168;53.576;9.980;2023-08-20T06:10:52;1.80;;;1.80;;
4309;SDS011;2168;53.576;9.980;2023-08-20T06:13:17;2.10;;;2.10;;
4309;SDS011;2168;53.576;9.980;2023-08-20T06:15:43;2.20;;;2.20;;
4309;SDS011;2168;53.576;9.980;2023-08-20T06:18:08;2.60;;;2.60;;
4309;SDS011;2168;53.576;9.980;2023-08-20T06:20:33;3.30;;;3.30;;
4309;SDS011;2168;53.576;9.980;2023-08-20T06:22:58;2.40;;;2.40;;
4309;SDS011;2168;53.576;9.980;2023-08-20T06:25:23;2.20;;;2.20;;
4309;SDS011;2168;53.576;9.980;2023-08-20T06:27:48;2.50;;;2.50;;
4309;SDS011;2168;53.576;9.980;2023-08-20T06:30:14;2.50;;;2.50;;
4309;SDS011;2168;53.576;9.980;2023-08-20T06:32:39;4.13;;;4.13;;
4309;SDS011;2168;53.576;9.980;2023-08-20T06:35:04;2.23;;;2.23;;
4309;SDS011;2168;53.576;9.980;2023-08-20T06:37:29;2.30;;;2.30;;
4309;SDS011;2168;53.576;9.980;2023-08-20T06:39:55;2.17;;;2.17;;
4309;SDS011;2168;53.576;9.980;2023-08-20T06:42:20;2.40;;;2.40;;
4309;SDS011;2168;53.576;9.980;2023-08-20T06:44:45;2.60;;;2.60;;
4309;SDS011;2168;53.576;9.980;2023-08-20T06:47:10;3.00;;;3.00;;
4309;SDS011;2168;53.576;9.980;2023-08-20T06:49:36;2.30;;;2.30;;
4309;SDS011;2168;53.576;9.980;2023-08-20T06:52:02;2.50;;;2.50;;
4309;SDS011;2168;53.576;9.980;2023-08-20T06:54:27;3.10;;;3.10;;
4309;SDS011;2168;53.576;9.980;2023-08-20T06:56:52;3.00;;;3.00;;
4309;SDS011;2168;53.576;9.980;2023-08-20T06:59:17;2.43;;;2.43;;
4309;SDS011;2168;53.576;9.980;2023-08-20T07:01:43;3.20;;;3.20;;
4309;SDS011;2168;53.576;9.980;2023-08-20T07:04:09;2.93;;;2.93;;
4309;SDS011;2168;53.576;9.980;2023-08-20T07:06:34;3.20;;;3.20;;
4309;SDS011;2168;53.576;9.980;2023-08-20T07:08:59;3.50;;;3.50;;
4309;SDS011;2168;53.576;9.980;2023-08-20T07:11:24;4.30;;;4.30;;
4309;SDS011;2168;53.576;9.980;2023-08-20T07:13:49;3.93;;;3.93;;
4309;SDS011;2168;53.576;9.980;2023-08-20T07:16:14;3.33;;;3.33;;
4309;SDS011;2168;53.576;9.980;2023-08-20T07:18:40;3.80;;;3.80;;
4309;SDS011;2168;53.576;9.980;2023-08-20T07:21:05;3.60;;;3.60;;
4309;SDS011;2168;53.576;9.980;2023-08-20T07:23:32;3.43;;;3.43;;
4309;SDS011;2168;53.576;9.980;2023-08-20T07:26:04;3.40;;;3.40;;
4309;SDS011;2168;53.576;9.980;2023-08-20T07:28:30;4.37;;;4.37;;
4309;SDS011;2168;53.576;9.980;2023-08-20T07:31:15;3.60;;;3.60;;
4309;SDS011;2168;53.576;9.980;2023-08-20T07:33:40;4.00;;;4.00;;
4309;SDS011;2168;53.576;9.980;2023-08-20T07:36:05;6.03;;;5.93;;
4309;SDS011;2168;53.576;9.980;2023-08-20T07:38:30;3.67;;;3.67;;
4309;SDS011;2168;53.576;9.980;2023-08-20T07:40:56;3.17;;;3.17;;
4309;SDS011;2168;53.576;9.980;2023-08-20T07:43:21;3.10;;;3.10;;
4309;SDS011;2168;53.576;9.980;2023-08-20T07:45:46;5.93;;;5.83;;
4309;SDS011;2168;53.576;9.980;2023-08-20T07:48:11;3.70;;;3.70;;
4309;SDS011;2168;53.576;9.980;2023-08-20T07:50:36;3.87;;;3.87;;
4309;SDS011;2168;53.576;9.980;2023-08-20T07:53:01;3.97;;;3.97;;
4309;SDS011;2168;53.576;9.980;2023-08-20T07:55:27;3.07;;;3.07;;
4309;SDS011;2168;53.576;9.980;2023-08-20T07:57:52;4.17;;;4.17;;
4309;SDS011;2168;53.576;9.980;2023-08-20T08:00:17;4.40;;;4.40;;
4309;SDS011;2168;53.576;9.980;2023-08-20T08:02:43;5.10;;;5.10;;
4309;SDS011;2168;53.576;9.980;2023-08-20T08:05:08;3.87;;;3.87;;
4309;SDS011;2168;53.576;9.980;2023-08-20T08:07:33;3.70;;;3.70;;
4309;SDS011;2168;53.576;9.980;2023-08-20T08:09:58;4.03;;;4.03;;
4309;SDS011;2168;53.576;9.980;2023-08-20T08:12:23;4.27;;;4.27;;
4309;SDS011;2168;53.576;9.980;2023-08-20T08:14:48;4.20;;;4.20;;
4309;SDS011;2168;53.576;9.980;2023-08-20T08:17:14;6.20;;;6.10;;
4309;SDS011;2168;53.576;9.980;2023-08-20T08:19:39;3.80;;;3.80;;
4309;SDS011;2168;53.576;9.980;2023-08-20T08:22:04;4.83;;;4.83;;
4309;SDS011;2168;53.576;9.980;2023-08-20T08:24:29;2.87;;;2.87;;
4309;SDS011;2168;53.576;9.980;2023-08-20T08:26:54;3.17;;;3.17;;
4309;SDS011;2168;53.576;9.980;2023-08-20T08:29:20;4.80;;;4.80;;
4309;SDS011;2168;53.576;9.980;2023-08-20T08:31:45;4.10;;;4.10;;
4309;SDS011;2168;53.576;9.980;2023-08-20T08:34:10;6.03;;;5.93;;
4309;SDS011;2168;53.576;9.980;2023-08-20T08:36:36;3.67;;;3.67;;
4309;SDS011;2168;53.576;9.980;2023-08-20T08:39:01;4.20;;;4.20;;
4309;SDS011;2168;53.576;9.980;2023-08-20T08:41:27;3.80;;;3.80;;
4309;SDS011;2168;53.576;9.980;2023-08-20T08:43:53;3.47;;;3.47;;
4309;SDS011;2168;53.576;9.980;2023-08-20T08:46:20;5.60;;;5.50;;
4309;SDS011;2168;53.576;9.980;2023-08-20T08:48:45;3.27;;;3.27;;
4309;SDS011;2168;53.576;9.980;2023-08-20T08:51:12;3.60;;;3.60;;
4309;SDS011;2168;53.576;9.980;2023-08-20T08:53:38;3.80;;;3.80;;
4309;SDS011;2168;53.576;9.980;2023-08-20T08:56:03;3.80;;;3.80;;
4309;SDS011;2168;53.576;9.980;2023-08-20T08:58:30;5.03;;;5.00;;
4309;SDS011;2168;53.576;9.980;2023-08-20T09:00:56;4.30;;;4.30;;
4309;SDS011;2168;53.576;9.980;2023-08-20T09:03:21;3.77;;;3.77;;
4309;SDS011;2168;53.576;9.980;2023-08-20T09:05:47;3.33;;;3.33;;
4309;SDS011;2168;53.576;9.980;2023-08-20T09:08:23;2.70;;;2.70;;
4309;SDS011;2168;53.576;9.980;2023-08-20T09:10:51;2.80;;;2.80;;
4309;SDS011;2168;53.576;9.980;2023-08-20T09:13:16;2.90;;;2.90;;
4309;SDS011;2168;53.576;9.980;2023-08-20T09:15:42;2.73;;;2.73;;
4309;SDS011;2168;53.576;9.980;2023-08-20T09:18:09;3.60;;;3.60;;
4309;SDS011;2168;53.576;9.980;2023-08-20T09:20:37;3.10;;;3.10;;
4309;SDS011;2168;53.576;9.980;2023-08-20T09:23:03;4.40;;;4.40;;
4309;SDS011;2168;53.576;9.980;2023-08-20T09:25:28;4.70;;;4.70;;
4309;SDS011;2168;53.576;9.980;2023-08-20T09:27:53;4.20;;;4.20;;
4309;SDS011;2168;53.576;9.980;2023-08-20T09:30:19;4.80;;;4.80;;
4309;SDS011;2168;53.576;9.980;2023-08-20T09:32:45;4.40;;;4.40;;
4309;SDS011;2168;53.576;9.980;2023-08-20T09:35:17;4.90;;;4.90;;
4309;SDS011;2168;53.576;9.980;2023-08-20T09:37:43;6.13;;;6.03;;
4309;SDS011;2168;53.576;9.980;2023-08-20T09:40:08;6.83;;;6.73;;
4309;SDS011;2168;53.576;9.980;2023-08-20T09:42:34;5.20;;;5.20;;
4309;SDS011;2168;53.576;9.980;2023-08-20T09:44:59;4.23;;;4.23;;
4309;SDS011;2168;53.576;9.980;2023-08-20T09:47:27;5.07;;;5.07;;
4309;SDS011;2168;53.576;9.980;2023-08-20T09:49:53;4.67;;;4.63;;
4309;SDS011;2168;53.576;9.980;2023-08-20T09:52:31;5.03;;;5.00;;
4309;SDS011;2168;53.576;9.980;2023-08-20T09:55:00;7.33;;;7.20;;
4309;SDS011;2168;53.576;9.980;2023-08-20T09:59:54;6.33;;;6.23;;
4309;SDS011;2168;53.576;9.980;2023-08-20T10:02:20;4.20;;;4.20;;
4309;SDS011;2168;53.576;9.980;2023-08-20T10:04:45;6.10;;;6.00;;
4309;SDS011;2168;53.576;9.980;2023-08-20T10:07:11;4.40;;;4.40;;
4309;SDS011;2168;53.576;9.980;2023-08-20T10:09:38;4.50;;;4.50;;
4309;SDS011;2168;53.576;9.980;2023-08-20T10:12:03;6.50;;;6.40;;
4309;SDS011;2168;53.576;9.980;2023-08-20T10:14:29;4.50;;;4.50;;
4309;SDS011;2168;53.576;9.980;2023-08-20T10:16:54;5.70;;;5.60;;
4309;SDS011;2168;53.576;9.980;2023-08-20T10:19:19;5.73;;;5.63;;
4309;SDS011;2168;53.576;9.980;2023-08-20T10:21:44;5.70;;;5.60;;
4309;SDS011;2168;53.576;9.980;2023-08-20T10:24:12;5.20;;;5.20;;
4309;SDS011;2168;53.576;9.980;2023-08-20T10:26:41;6.03;;;5.93;;
4309;SDS011;2168;53.576;9.980;2023-08-20T10:31:50;5.07;;;5.07;;
4309;SDS011;2168;53.576;9.980;2023-08-20T10:34:38;2.80;;;2.80;;
4309;SDS011;2168;53.576;9.980;2023-08-20T10:37:10;4.20;;;4.20;;
4309;SDS011;2168;53.576;9.980;2023-08-20T10:39:35;4.60;;;4.60;;
4309;SDS011;2168;53.576;9.980;2023-08-20T10:47:41;3.73;;;3.73;;
4309;SDS011;2168;53.576;9.980;2023-08-20T10:50:10;5.70;;;5.60;;
4309;SDS011;2168;53.576;9.980;2023-08-20T10:52:43;3.50;;;3.50;;
4309;SDS011;2168;53.576;9.980;2023-08-20T10:55:11;5.13;;;5.03;;
4309;SDS011;2168;53.576;9.980;2023-08-20T10:57:38;4.27;;;4.27;;
4309;SDS011;2168;53.576;9.980;2023-08-20T11:00:04;4.77;;;4.77;;
4309;SDS011;2168;53.576;9.980;2023-08-20T11:02:39;5.27;;;5.27;;
4309;SDS011;2168;53.576;9.980;2023-08-20T11:05:09;4.50;;;4.50;;
4309;SDS011;2168;53.576;9.980;2023-08-20T11:07:40;4.33;;;4.33;;
4309;SDS011;2168;53.576;9.980;2023-08-20T11:10:06;5.00;;;5.00;;
4309;SDS011;2168;53.576;9.980;2023-08-20T11:12:32;5.67;;;5.57;;
4309;SDS011;2168;53.576;9.980;2023-08-20T11:15:00;4.27;;;4.27;;
4309;SDS011;2168;53.576;9.980;2023-08-20T11:17:25;8.47;;;8.27;;
4309;SDS011;2168;53.576;9.980;2023-08-20T11:19:50;6.43;;;6.33;;
4309;SDS011;2168;53.576;9.980;2023-08-20T11:22:15;3.97;;;3.97;;
4309;SDS011;2168;53.576;9.980;2023-08-20T11:24:43;5.00;;;5.00;;
4309;SDS011;2168;53.576;9.980;2023-08-20T11:27:09;3.97;;;3.97;;
4309;SDS011;2168;53.576;9.980;2023-08-20T11:29:34;3.80;;;3.80;;
4309;SDS011;2168;53.576;9.980;2023-08-20T11:31:59;6.63;;;6.53;;
4309;SDS011;2168;53.576;9.980;2023-08-20T11:34:28;5.30;;;5.20;;
4309;SDS011;2168;53.576;9.980;2023-08-20T11:36:53;4.37;;;4.37;;
4309;SDS011;2168;53.576;9.980;2023-08-20T11:39:19;6.17;;;6.07;;
4309;SDS011;2168;53.576;9.980;2023-08-20T11:41:44;3.77;;;3.77;;
4309;SDS011;2168;53.576;9.980;2023-08-20T11:44:10;6.47;;;6.37;;
4309;SDS011;2168;53.576;9.980;2023-08-20T11:46:42;4.30;;;4.30;;
4309;SDS011;2168;53.576;9.980;2023-08-20T11:49:09;3.83;;;3.83;;
4309;SDS011;2168;53.576;9.980;2023-08-20T11:51:44;3.30;;;3.30;;
4309;SDS011;2168;53.576;9.980;2023-08-20T11:54:12;5.67;;;5.57;;
4309;SDS011;2168;53.576;9.980;2023-08-20T11:56:43;6.57;;;6.47;;
4309;SDS011;2168;53.576;9.980;2023-08-20T11:59:10;5.17;;;5.17;;
4309;SDS011;2168;53.576;9.980;2023-08-20T12:01:35;3.33;;;3.33;;
4309;SDS011;2168;53.576;9.980;2023-08-20T12:04:01;4.20;;;4.20;;
4309;SDS011;2168;53.576;9.980;2023-08-20T12:06:27;3.93;;;3.93;;
4309;SDS011;2168;53.576;9.980;2023-08-20T12:08:55;4.57;;;4.57;;
4309;SDS011;2168;53.576;9.980;2023-08-20T12:11:23;4.20;;;4.20;;
4309;SDS011;2168;53.576;9.980;2023-08-20T12:13:48;3.93;;;3.93;;
4309;SDS011;2168;53.576;9.980;2023-08-20T12:16:13;3.83;;;3.83;;
4309;SDS011;2168;53.576;9.980;2023-08-20T12:18:39;5.07;;;5.00;;
4309;SDS011;2168;53.576;9.980;2023-08-20T12:21:04;3.23;;;3.23;;
4309;SDS011;2168;53.576;9.980;2023-08-20T12:23:29;6.57;;;6.47;;
4309;SDS011;2168;53.576;9.980;2023-08-20T12:25:54;6.37;;;6.27;;
4309;SDS011;2168;53.576;9.980;2023-08-20T12:28:19;4.50;;;4.50;;
4309;SDS011;2168;53.576;9.980;2023-08-20T12:30:45;3.97;;;3.97;;
4309;SDS011;2168;53.576;9.980;2023-08-20T12:33:11;7.37;;;7.20;;
4309;SDS011;2168;53.576;9.980;2023-08-20T12:35:36;4.57;;;4.57;;
4309;SDS011;2168;53.576;9.980;2023-08-20T12:38:02;4.70;;;4.70;;
4309;SDS011;2168;53.576;9.980;2023-08-20T12:40:27;4.20;;;4.20;;
4309;SDS011;2168;53.576;9.980;2023-08-20T12:42:53;4.13;;;4.13;;
4309;SDS011;2168;53.576;9.980;2023-08-20T12:45:18;5.10;;;5.00;;
4309;SDS011;2168;53.576;9.980;2023-08-20T12:47:43;3.90;;;3.90;;
4309;SDS011;2168;53.576;9.980;2023-08-20T12:50:09;4.40;;;4.40;;
4309;SDS011;2168;53.576;9.980;2023-08-20T12:52:35;4.40;;;4.40;;
4309;SDS011;2168;53.576;9.980;2023-08-20T12:55:01;4.40;;;4.40;;
4309;SDS011;2168;53.576;9.980;2023-08-20T12:57:27;4.60;;;4.60;;
4309;SDS011;2168;53.576;9.980;2023-08-20T12:59:52;4.07;;;4.07;;
4309;SDS011;2168;53.576;9.980;2023-08-20T13:02:18;6.07;;;5.97;;
4309;SDS011;2168;53.576;9.980;2023-08-20T13:04:43;4.97;;;4.97;;
4309;SDS011;2168;53.576;9.980;2023-08-20T13:07:08;4.73;;;4.73;;
4309;SDS011;2168;53.576;9.980;2023-08-20T13:09:33;5.60;;;5.50;;
4309;SDS011;2168;53.576;9.980;2023-08-20T13:12:00;4.40;;;4.40;;
4309;SDS011;2168;53.576;9.980;2023-08-20T13:14:26;5.80;;;5.70;;
4309;SDS011;2168;53.576;9.980;2023-08-20T13:16:51;4.73;;;4.73;;
4309;SDS011;2168;53.576;9.980;2023-08-20T13:19:16;4.30;;;4.30;;
4309;SDS011;2168;53.576;9.980;2023-08-20T13:21:42;6.70;;;6.60;;
4309;SDS011;2168;53.576;9.980;2023-08-20T13:24:07;4.70;;;4.70;;
4309;SDS011;2168;53.576;9.980;2023-08-20T13:26:33;4.60;;;4.60;;
4309;SDS011;2168;53.576;9.980;2023-08-20T13:28:58;5.57;;;5.47;;
4309;SDS011;2168;53.576;9.980;2023-08-20T13:31:24;4.60;;;4.60;;
4309;SDS011;2168;53.576;9.980;2023-08-20T13:33:49;4.80;;;4.80;;
4309;SDS011;2168;53.576;9.980;2023-08-20T13:36:14;6.37;;;6.27;;
4309;SDS011;2168;53.576;9.980;2023-08-20T13:38:40;4.40;;;4.40;;
4309;SDS011;2168;53.576;9.980;2023-08-20T13:41:05;4.47;;;4.47;;
4309;SDS011;2168;53.576;9.980;2023-08-20T13:43:30;6.90;;;6.80;;
4309;SDS011;2168;53.576;9.980;2023-08-20T13:45:56;4.70;;;4.70;;
4309;SDS011;2168;53.576;9.980;2023-08-20T13:48:21;4.40;;;4.40;;
4309;SDS011;2168;53.576;9.980;2023-08-20T13:50:46;4.37;;;4.37;;
4309;SDS011;2168;53.576;9.980;2023-08-20T13:53:11;6.00;;;5.90;;
4309;SDS011;2168;53.576;9.980;2023-08-20T13:55:36;6.70;;;6.60;;
4309;SDS011;2168;53.576;9.980;2023-08-20T13:58:02;5.30;;;5.20;;
4309;SDS011;2168;53.576;9.980;2023-08-20T14:00:27;4.47;;;4.47;;
4309;SDS011;2168;53.576;9.980;2023-08-20T14:02:52;4.60;;;4.60;;
4309;SDS011;2168;53.576;9.980;2023-08-20T14:05:17;3.40;;;3.40;;
4309;SDS011;2168;53.576;9.980;2023-08-20T14:07:44;5.50;;;5.40;;
4309;SDS011;2168;53.576;9.980;2023-08-20T14:10:09;4.03;;;4.03;;
4309;SDS011;2168;53.576;9.980;2023-08-20T14:12:34;4.70;;;4.70;;
4309;SDS011;2168;53.576;9.980;2023-08-20T14:15:00;4.80;;;4.80;;
4309;SDS011;2168;53.576;9.980;2023-08-20T14:17:25;4.47;;;4.47;;
4309;SDS011;2168;53.576;9.980;2023-08-20T14:19:50;4.57;;;4.57;;
4309;SDS011;2168;53.576;9.980;2023-08-20T14:22:15;5.43;;;5.33;;
4309;SDS011;2168;53.576;9.980;2023-08-20T14:24:40;4.60;;;4.60;;
4309;SDS011;2168;53.576;9.980;2023-08-20T14:27:06;4.60;;;4.60;;
4309;SDS011;2168;53.576;9.980;2023-08-20T14:29:32;4.83;;;4.83;;
4309;SDS011;2168;53.576;9.980;2023-08-20T14:31:57;5.70;;;5.60;;
4309;SDS011;2168;53.576;9.980;2023-08-20T14:34:22;5.90;;;5.80;;
4309;SDS011;2168;53.576;9.980;2023-08-20T14:36:48;4.27;;;4.27;;
4309;SDS011;2168;53.576;9.980;2023-08-20T14:39:13;5.90;;;5.80;;
4309;SDS011;2168;53.576;9.980;2023-08-20T14:41:38;3.97;;;3.97;;
4309;SDS011;2168;53.576;9.980;2023-08-20T14:44:03;5.20;;;5.10;;
4309;SDS011;2168;53.576;9.980;2023-08-20T14:46:29;7.50;;;7.33;;
4309;SDS011;2168;53.576;9.980;2023-08-20T14:48:54;7.27;;;7.17;;
4309;SDS011;2168;53.576;9.980;2023-08-20T14:51:20;4.20;;;4.20;;
4309;SDS011;2168;53.576;9.980;2023-08-20T14:53:45;4.70;;;4.70;;
4309;SDS011;2168;53.576;9.980;2023-08-20T14:56:10;4.23;;;4.23;;
4309;SDS011;2168;53.576;9.980;2023-08-20T14:58:35;5.10;;;5.10;;
4309;SDS011;2168;53.576;9.980;2023-08-20T15:01:00;4.77;;;4.77;;
4309;SDS011;2168;53.576;9.980;2023-08-20T15:03:26;7.73;;;7.53;;
4309;SDS011;2168;53.576;9.980;2023-08-20T15:05:51;4.53;;;4.53;;
4309;SDS011;2168;53.576;9.980;2023-08-20T15:08:16;4.60;;;4.60;;
4309;SDS011;2168;53.576;9.980;2023-08-20T15:10:41;6.97;;;6.87;;
4309;SDS011;2168;53.576;9.980;2023-08-20T15:13:07;5.00;;;5.00;;
4309;SDS011;2168;53.576;9.980;2023-08-20T15:15:32;4.70;;;4.70;;
4309;SDS011;2168;53.576;9.980;2023-08-20T15:17:57;6.50;;;6.40;;
4309;SDS011;2168;53.576;9.980;2023-08-20T15:20:22;4.90;;;4.90;;
4309;SDS011;2168;53.576;9.980;2023-08-20T15:22:47;4.50;;;4.50;;
4309;SDS011;2168;53.576;9.980;2023-08-20T15:25:13;6.73;;;6.63;;